Time;durP1;ratioP1;P1;durP2;ratioP2;P2;SDS_P1;SDS_P2;PMS_P1;PMS_P2;Temp;Humidity;BMP_temperature;BMP_pressure;BME280_temperature;BME280_humidity;BME280_pressure;Samples;Min_cycle;Max_cycle;Signal;HPM_P1;HPM_P2
2022/05/26 00:01:07;;;;;;;3.10;1.77;;;;;16.90;101128.00;;;;5026825;28;20228;-73
2022/05/26 00:03:54;;;;;;;1.67;1.57;;;;;17.00;101131.00;;;;5015872;28;20243;-72
2022/05/26 00:06:41;;;;;;;3.50;1.63;;;;;16.90;101128.00;;;;5021090;28;20246;-71
2022/05/26 00:09:27;;;;;;;1.77;1.63;;;;;17.00;101126.00;;;;5018014;28;20224;-71
2022/05/26 00:12:16;;;;;;;3.63;1.80;;;;;16.90;101127.00;;;;5017615;28;20743;-72
2022/05/26 00:15:05;;;;;;;2.30;1.87;;;;;16.80;101135.00;;;;5025236;28;20240;-70
2022/05/26 00:17:52;;;;;;;3.70;2.00;;;;;16.90;101124.00;;;;5024737;28;20236;-71
2022/05/26 00:20:38;;;;;;;1.83;1.73;;;;;16.90;101133.00;;;;5020622;28;20986;-71
2022/05/26 00:23:24;;;;;;;2.23;2.07;;;;;16.90;101126.00;;;;5021117;28;20232;-71
2022/05/26 00:26:11;;;;;;;1.60;1.50;;;;;16.80;101124.00;;;;5021763;28;20720;-70
2022/05/26 00:28:57;;;;;;;2.17;1.60;;;;;16.90;101130.00;;;;5020468;28;20239;-71
2022/05/26 00:31:45;;;;;;;1.70;1.60;;;;;16.90;101145.00;;;;5020904;28;20229;-71
2022/05/26 00:34:31;;;;;;;2.93;1.80;;;;;16.80;101136.00;;;;5015042;28;20232;-71
2022/05/26 00:37:17;;;;;;;3.57;2.10;;;;;16.90;101138.00;;;;5019113;28;20240;-70
2022/05/26 00:40:06;;;;;;;2.43;1.93;;;;;16.80;101128.00;;;;5013470;28;20243;-71
2022/05/26 00:42:52;;;;;;;2.03;1.70;;;;;16.80;101138.00;;;;5014152;28;20627;-71
2022/05/26 00:45:41;;;;;;;3.50;1.77;;;;;16.80;101146.00;;;;5016302;28;20260;-70
2022/05/26 00:48:37;;;;;;;1.83;1.70;;;;;16.70;101142.00;;;;5020513;28;20237;-71
2022/05/26 00:51:27;;;;;;;1.80;1.70;;;;;16.70;101145.00;;;;5020948;28;20241;-71
2022/05/26 00:54:19;;;;;;;1.60;1.50;;;;;16.80;101128.00;;;;5026628;28;20340;-71
2022/05/26 00:57:09;;;;;;;2.10;1.90;;;;;16.70;101136.00;;;;5016099;28;20597;-70
2022/05/26 01:00:01;;;;;;;2.43;1.87;;;;;16.70;101138.00;;;;4999437;28;20750;-70
2022/05/26 01:02:54;;;;;;;6.67;2.10;;;;;16.70;101131.00;;;;5022286;28;20235;-71
2022/05/26 01:05:49;;;;;;;1.63;1.53;;;;;16.70;101142.00;;;;5022910;28;20224;-71
2022/05/26 01:08:39;;;;;;;2.03;1.83;;;;;16.80;101134.00;;;;5004702;28;20232;-71
2022/05/26 01:11:27;;;;;;;4.20;2.20;;;;;16.70;101136.00;;;;4997965;28;20229;-70
2022/05/26 01:14:19;;;;;;;2.10;1.90;;;;;16.60;101130.00;;;;5006762;28;20247;-71
2022/05/26 01:17:14;;;;;;;2.00;1.80;;;;;16.60;101135.00;;;;5007207;28;20236;-71
2022/05/26 01:20:16;;;;;;;2.60;2.00;;;;;16.60;101137.00;;;;5024157;28;20244;-71
2022/05/26 01:23:41;;;;;;;3.63;2.27;;;;;16.60;101136.00;;;;5006712;28;20358;-70
2022/05/26 01:27:01;;;;;;;2.17;1.97;;;;;16.60;101138.00;;;;5020180;28;20229;-70
2022/05/26 01:30:32;;;;;;;2.33;2.13;;;;;16.60;101134.00;;;;4993602;28;20245;-70
2022/05/26 01:33:31;;;;;;;2.20;1.83;;;;;16.60;101135.00;;;;5017699;28;20240;-70
2022/05/26 01:36:31;;;;;;;1.70;1.60;;;;;16.60;101133.00;;;;5017966;28;20232;-70
2022/05/26 01:39:24;;;;;;;2.47;2.20;;;;;16.50;101129.00;;;;5018549;28;20349;-70
2022/05/26 01:42:20;;;;;;;6.17;1.97;;;;;16.50;101131.00;;;;5025648;28;20232;-71
2022/05/26 01:45:14;;;;;;;1.90;1.77;;;;;16.50;101122.00;;;;5025527;28;20236;-70
2022/05/26 01:48:07;;;;;;;2.10;1.90;;;;;16.50;101125.00;;;;5026145;28;20235;-70
2022/05/26 01:51:01;;;;;;;1.90;1.80;;;;;16.50;101136.00;;;;5013350;28;20236;-70
2022/05/26 01:53:54;;;;;;;2.03;1.83;;;;;16.50;101100.00;;;;5025761;28;20236;-70
2022/05/26 01:56:48;;;;;;;3.13;2.27;;;;;16.50;101135.00;;;;5021385;28;20306;-69
2022/05/26 01:59:38;;;;;;;3.10;2.10;;;;;16.50;101134.00;;;;5020500;28;20259;-69
2022/05/26 02:02:29;;;;;;;3.10;2.00;;;;;16.50;101136.00;;;;5019039;28;20296;-71
2022/05/26 02:05:19;;;;;;;2.47;2.20;;;;;16.50;101117.00;;;;5025334;28;20355;-72
2022/05/26 02:08:11;;;;;;;3.50;1.80;;;;;16.50;101150.00;;;;5024188;28;20243;-72
2022/05/26 02:11:01;;;;;;;3.50;2.10;;;;;16.50;101141.00;;;;5025503;28;20720;-70
2022/05/26 02:13:52;;;;;;;2.60;2.10;;;;;16.50;101153.00;;;;5025793;28;20229;-70
2022/05/26 02:16:43;;;;;;;2.87;2.40;;;;;16.50;101160.00;;;;5023355;28;20230;-70
2022/05/26 02:19:34;;;;;;;3.87;2.07;;;;;16.40;101162.00;;;;5025896;28;20612;-70
2022/05/26 02:22:25;;;;;;;2.47;2.27;;;;;16.40;101158.00;;;;5025755;28;20223;-71
2022/05/26 02:25:16;;;;;;;2.17;1.97;;;;;16.50;101156.00;;;;5021905;28;20286;-71
2022/05/26 02:28:02;;;;;;;4.07;2.37;;;;;16.40;101161.00;;;;5013843;28;20362;-71
2022/05/26 02:30:50;;;;;;;3.67;2.10;;;;;16.40;101159.00;;;;5025681;28;20230;-71
2022/05/26 02:33:36;;;;;;;3.63;2.50;;;;;16.40;101167.00;;;;5014490;28;20237;-71
2022/05/26 02:36:25;;;;;;;2.30;2.10;;;;;16.30;101167.00;;;;5013188;28;20558;-71
2022/05/26 02:39:11;;;;;;;4.03;2.50;;;;;16.30;101161.00;;;;5025315;28;20334;-70
2022/05/26 02:41:59;;;;;;;3.57;2.73;;;;;16.30;101143.00;;;;5022371;28;20356;-71
2022/05/26 02:44:47;;;;;;;4.50;2.60;;;;;16.30;101164.00;;;;5025080;28;20307;-70
2022/05/26 02:47:47;;;;;;;2.43;2.13;;;;;16.30;101171.00;;;;5025607;28;20245;-70
2022/05/26 02:50:48;;;;;;;5.00;2.60;;;;;16.30;101173.00;;;;5019309;28;20232;-71
2022/05/26 02:53:43;;;;;;;3.37;2.40;;;;;16.20;101177.00;;;;5018118;28;20288;-71
2022/05/26 02:56:48;;;;;;;3.77;2.60;;;;;16.00;101170.00;;;;5018407;28;20286;-71
2022/05/26 02:59:47;;;;;;;3.63;2.90;;;;;15.90;101180.00;;;;5019172;28;20235;-71
2022/05/26 03:02:45;;;;;;;3.37;2.90;;;;;15.80;101182.00;;;;5025102;28;20228;-72
2022/05/26 03:05:38;;;;;;;3.50;3.10;;;;;15.70;101191.00;;;;5018585;28;20258;-72
2022/05/26 03:08:27;;;;;;;3.50;2.70;;;;;15.80;101185.00;;;;5019935;28;20703;-71
2022/05/26 03:11:19;;;;;;;4.20;3.40;;;;;15.70;101179.00;;;;5016107;28;20229;-71
2022/05/26 03:14:05;;;;;;;5.37;3.57;;;;;15.70;101188.00;;;;5025026;28;20236;-71
2022/05/26 03:16:54;;;;;;;3.27;2.93;;;;;15.60;101189.00;;;;5026721;28;20296;-71
2022/05/26 03:19:40;;;;;;;3.73;2.80;;;;;15.70;101197.00;;;;5023848;28;20731;-72
2022/05/26 03:22:26;;;;;;;4.97;3.03;;;;;15.60;101191.00;;;;5021434;28;20725;-71
2022/05/26 03:25:13;;;;;;;4.07;3.20;;;;;15.60;101190.00;;;;5028625;28;20350;-71
2022/05/26 03:27:59;;;;;;;4.27;3.23;;;;;15.60;101192.00;;;;5028643;28;20249;-72
2022/05/26 03:30:46;;;;;;;4.50;3.37;;;;;15.60;101196.00;;;;5028957;28;20603;-71
2022/05/26 03:42:42;;;;;;;5.13;3.60;;;;;15.60;101195.00;;;;5012953;28;20234;-71
2022/05/26 03:45:30;;;;;;;6.57;3.50;;;;;15.60;101199.00;;;;5001430;28;20238;-72
2022/05/26 03:48:16;;;;;;;6.47;3.80;;;;;15.50;101202.00;;;;5028363;28;20237;-72
2022/05/26 03:51:05;;;;;;;7.30;3.93;;;;;15.50;101201.00;;;;5028294;28;20377;-72
2022/05/26 03:53:51;;;;;;;7.20;4.40;;;;;15.50;101200.00;;;;5007225;28;20363;-72
2022/05/26 03:56:38;;;;;;;6.47;3.30;;;;;15.50;101207.00;;;;5008651;28;20926;-72
2022/05/26 03:59:24;;;;;;;4.97;3.60;;;;;15.60;101211.00;;;;4998480;28;20226;-71
2022/05/26 04:02:10;;;;;;;3.90;3.20;;;;;15.60;101225.00;;;;5008714;28;20731;-69
2022/05/26 04:04:57;;;;;;;5.57;3.30;;;;;15.50;101184.00;;;;5008569;28;20310;-70
2022/05/26 04:07:44;;;;;;;4.23;3.77;;;;;15.50;101230.00;;;;5003377;28;20727;-71
2022/05/26 04:10:31;;;;;;;8.00;3.53;;;;;15.50;101228.00;;;;5020889;28;20378;-71
2022/05/26 04:13:18;;;;;;;6.43;3.37;;;;;15.50;101225.00;;;;5027590;28;20732;-71
2022/05/26 04:16:10;;;;;;;5.13;3.87;;;;;15.50;101228.00;;;;5027876;28;20721;-72
2022/05/26 04:18:57;;;;;;;7.97;3.80;;;;;15.60;101222.00;;;;5027899;28;20242;-71
2022/05/26 04:24:46;;;;;;;5.97;3.73;;;;;15.60;101237.00;;;;5022329;28;20365;-71
2022/05/26 04:27:34;;;;;;;8.60;3.90;;;;;15.60;101232.00;;;;5020448;28;20289;-71
2022/05/26 04:30:22;;;;;;;7.03;4.00;;;;;15.70;101219.00;;;;5024380;28;20231;-72
2022/05/26 04:33:08;;;;;;;9.03;4.13;;;;;15.70;101231.00;;;;5022344;28;20231;-72
2022/05/26 04:35:56;;;;;;;5.53;3.90;;;;;15.70;101241.00;;;;5027776;28;20805;-71
2022/05/26 04:38:43;;;;;;;6.40;4.40;;;;;15.70;101244.00;;;;5028034;28;20237;-72
2022/05/26 04:41:36;;;;;;;7.63;4.00;;;;;15.90;101247.00;;;;5026089;28;20318;-72
2022/05/26 04:44:23;;;;;;;7.80;4.10;;;;;15.80;101249.00;;;;5027013;28;20246;-71
2022/05/26 04:47:09;;;;;;;6.73;3.63;;;;;15.80;101253.00;;;;5025830;28;20309;-73
2022/05/26 04:49:56;;;;;;;5.07;4.00;;;;;15.80;101251.00;;;;5027638;28;20273;-71
2022/05/26 04:52:43;;;;;;;9.20;4.50;;;;;15.80;101250.00;;;;5024027;28;20708;-73
2022/05/26 04:55:29;;;;;;;8.67;4.00;;;;;15.90;101247.00;;;;5027260;28;20308;-71
2022/05/26 04:58:16;;;;;;;7.03;4.00;;;;;15.80;101249.00;;;;5027164;28;20315;-71
2022/05/26 05:01:12;;;;;;;8.27;4.43;;;;;15.80;101254.00;;;;5026872;28;20651;-72
2022/05/26 05:04:00;;;;;;;9.00;4.53;;;;;15.80;101259.00;;;;5021204;28;20609;-72
2022/05/26 05:06:46;;;;;;;7.70;4.43;;;;;16.00;101262.00;;;;5021895;28;20229;-73
2022/05/26 05:09:32;;;;;;;9.57;4.43;;;;;16.00;101265.00;;;;5022081;28;20839;-71
2022/05/26 05:12:21;;;;;;;9.40;4.57;;;;;16.00;101282.00;;;;5022318;28;20233;-72
2022/05/26 05:15:15;;;;;;;11.30;4.47;;;;;16.00;101266.00;;;;5017299;28;20351;-71
2022/05/26 05:18:01;;;;;;;11.20;4.53;;;;;15.90;101287.00;;;;5026905;28;20239;-70
2022/05/26 05:20:48;;;;;;;8.20;4.57;;;;;16.00;101279.00;;;;5016653;28;20235;-71
2022/05/26 05:23:39;;;;;;;8.87;4.43;;;;;16.00;101286.00;;;;5017102;28;23199;-71
2022/05/26 05:26:28;;;;;;;12.77;4.47;;;;;16.10;101293.00;;;;5006887;28;20810;-73
2022/05/26 05:29:18;;;;;;;10.03;4.60;;;;;16.10;101293.00;;;;5007118;28;20232;-72
2022/05/26 05:32:14;;;;;;;8.07;4.30;;;;;16.20;101296.00;;;;5025651;28;20340;-72
2022/05/26 05:35:04;;;;;;;16.87;4.97;;;;;16.10;101309.00;;;;5006590;28;20307;-71
2022/05/26 05:37:50;;;;;;;9.77;4.80;;;;;16.20;101304.00;;;;5018629;28;20282;-72
2022/05/26 05:40:37;;;;;;;14.97;7.53;;;;;16.20;101284.00;;;;5019392;28;20233;-71
2022/05/26 05:43:23;;;;;;;12.07;6.73;;;;;16.40;101300.00;;;;5026292;28;20335;-72
2022/05/26 05:46:11;;;;;;;11.63;5.37;;;;;16.30;101311.00;;;;5026198;28;20749;-72
2022/05/26 05:48:59;;;;;;;6.70;4.73;;;;;16.20;101309.00;;;;5026505;28;20236;-71
2022/05/26 05:51:45;;;;;;;10.07;5.20;;;;;16.20;101315.00;;;;5026342;28;20226;-71
2022/05/26 05:54:32;;;;;;;9.57;4.93;;;;;16.20;101314.00;;;;5025901;28;20236;-71
2022/05/26 05:57:19;;;;;;;10.77;5.13;;;;;16.40;101315.00;;;;5025830;28;20237;-71
2022/05/26 06:00:07;;;;;;;13.07;5.43;;;;;16.40;101317.00;;;;5023003;28;20970;-72
2022/05/26 06:02:54;;;;;;;16.73;5.77;;;;;16.50;101323.00;;;;5011440;28;20672;-72
2022/05/26 06:05:41;;;;;;;12.43;5.00;;;;;16.60;101326.00;;;;5019392;28;21147;-71
2022/05/26 06:08:28;;;;;;;12.47;5.73;;;;;16.70;101333.00;;;;5025387;28;20323;-70
2022/05/26 06:11:14;;;;;;;8.50;5.67;;;;;16.70;101334.00;;;;5026107;28;20303;-72
2022/05/26 06:14:00;;;;;;;10.10;5.57;;;;;16.80;101339.00;;;;5026142;28;21044;-72
2022/05/26 06:16:46;;;;;;;10.93;5.60;;;;;16.80;101323.00;;;;5020204;28;20229;-72
2022/05/26 06:19:33;;;;;;;13.50;5.90;;;;;16.90;101329.00;;;;5011083;28;20720;-72
2022/05/26 06:22:22;;;;;;;12.40;5.63;;;;;16.80;101339.00;;;;5022566;28;20244;-71
2022/05/26 06:25:09;;;;;;;14.67;6.23;;;;;16.80;101334.00;;;;5025557;28;20281;-72
2022/05/26 06:30:59;;;;;;;15.23;6.10;;;;;17.10;101349.00;;;;5021191;28;20233;-71
2022/05/26 06:39:55;;;;;;;10.53;6.63;;;;;17.00;101352.00;;;;5022630;28;20340;-71
2022/05/26 06:42:41;;;;;;;11.03;6.37;;;;;16.90;101361.00;;;;5025810;28;20647;-71
2022/05/26 06:45:28;;;;;;;9.90;5.77;;;;;17.00;101363.00;;;;5024936;28;20234;-70
2022/05/26 06:48:15;;;;;;;14.07;5.93;;;;;17.10;101369.00;;;;5024270;28;20311;-71
2022/05/26 06:51:02;;;;;;;13.00;6.40;;;;;17.30;101363.00;;;;5008414;28;20229;-70
2022/05/26 06:53:48;;;;;;;12.00;5.70;;;;;17.40;101360.00;;;;5007533;28;20824;-72
2022/05/26 06:56:36;;;;;;;11.40;5.83;;;;;17.60;101372.00;;;;5010743;28;20249;-71
2022/05/26 06:59:22;;;;;;;11.33;6.30;;;;;17.60;101378.00;;;;5024705;28;20226;-71
2022/05/26 07:02:11;;;;;;;13.50;6.37;;;;;17.80;101373.00;;;;5013252;28;20252;-71
2022/05/26 07:04:58;;;;;;;11.40;5.73;;;;;17.80;101367.00;;;;5015384;28;20293;-71
2022/05/26 07:07:44;;;;;;;9.77;5.40;;;;;17.80;101376.00;;;;5018787;28;20296;-71
2022/05/26 07:10:33;;;;;;;14.37;6.33;;;;;17.80;101373.00;;;;5024455;28;20229;-71
2022/05/26 07:13:23;;;;;;;12.00;6.37;;;;;17.90;101373.00;;;;5024462;28;20233;-70
2022/05/26 07:16:10;;;;;;;13.80;6.23;;;;;18.00;101376.00;;;;5025218;28;20225;-71
2022/05/26 07:18:57;;;;;;;11.97;6.27;;;;;17.90;101387.00;;;;5025042;28;20611;-70
2022/05/26 07:21:46;;;;;;;14.10;6.97;;;;;17.90;101384.00;;;;5018510;28;20272;-70
2022/05/26 07:24:36;;;;;;;12.83;5.60;;;;;18.00;101386.00;;;;5024797;28;20253;-71
2022/05/26 07:27:22;;;;;;;10.87;6.27;;;;;18.00;101396.00;;;;5023020;28;20237;-70
2022/05/26 07:30:13;;;;;;;10.73;5.90;;;;;18.20;101398.00;;;;5025168;28;20238;-70
2022/05/26 07:33:00;;;;;;;13.63;6.43;;;;;18.40;101413.00;;;;5025183;28;20236;-71
2022/05/26 07:35:46;;;;;;;9.70;6.17;;;;;18.40;101407.00;;;;5021941;28;20229;-71
2022/05/26 07:41:38;;;;;;;9.53;5.97;;;;;18.50;101398.00;;;;5024751;28;20236;-71
2022/05/26 07:44:25;;;;;;;11.30;6.20;;;;;18.40;101399.00;;;;5024348;28;20296;-70
2022/05/26 07:47:13;;;;;;;9.73;5.70;;;;;18.60;101399.00;;;;5016503;28;20326;-71
2022/05/26 07:50:00;;;;;;;9.20;5.37;;;;;18.60;101412.00;;;;5024947;28;20234;-70
2022/05/26 07:52:47;;;;;;;11.83;5.50;;;;;18.60;101414.00;;;;5018259;28;20229;-70
2022/05/26 07:55:35;;;;;;;14.63;5.73;;;;;18.80;101411.00;;;;5024209;28;20234;-71
2022/05/26 07:58:21;;;;;;;11.57;5.60;;;;;18.80;101411.00;;;;5024521;28;20237;-71
2022/05/26 08:01:08;;;;;;;12.57;5.03;;;;;18.90;101420.00;;;;5024886;28;20228;-69
2022/05/26 08:03:55;;;;;;;11.27;4.90;;;;;18.80;101419.00;;;;5027194;28;20788;-70
2022/05/26 08:06:45;;;;;;;10.97;5.20;;;;;18.70;101435.00;;;;5020999;28;20239;-70
2022/05/26 08:09:33;;;;;;;9.37;5.17;;;;;18.60;101425.00;;;;5012729;28;20242;-70
2022/05/26 08:12:19;;;;;;;7.30;5.00;;;;;18.50;101437.00;;;;5017635;28;20233;-70
2022/05/26 08:15:07;;;;;;;8.57;4.80;;;;;18.50;101429.00;;;;5027868;28;20233;-70
2022/05/26 08:17:53;;;;;;;9.73;6.13;;;;;18.30;101442.00;;;;5021964;28;20918;-70
2022/05/26 08:20:41;;;;;;;9.33;4.93;;;;;18.40;101452.00;;;;5020343;28;20233;-70
2022/05/26 08:23:27;;;;;;;11.63;5.53;;;;;18.50;101444.00;;;;5027626;28;20917;-70
2022/05/26 08:26:14;;;;;;;9.90;5.30;;;;;18.80;101443.00;;;;5027882;28;20319;-70
2022/05/26 08:29:00;;;;;;;12.10;4.83;;;;;19.20;101445.00;;;;5021861;28;20304;-72
2022/05/26 08:31:46;;;;;;;7.63;4.90;;;;;19.50;101462.00;;;;5020603;28;20233;-70
2022/05/26 08:34:33;;;;;;;9.27;4.37;;;;;19.60;101452.00;;;;5027312;28;20233;-71
2022/05/26 08:37:21;;;;;;;8.90;4.30;;;;;19.40;101447.00;;;;5021137;28;20241;-70
2022/05/26 08:40:09;;;;;;;6.83;4.43;;;;;19.50;101460.00;;;;5027631;28;20233;-71
2022/05/26 08:42:55;;;;;;;8.23;4.70;;;;;19.50;101455.00;;;;5021547;28;20233;-71
2022/05/26 08:45:46;;;;;;;10.07;6.13;;;;;19.50;101451.00;;;;5019954;28;20371;-71
2022/05/26 08:48:51;;;;;;;8.47;4.50;;;;;19.80;101453.00;;;;5018155;28;20827;-70
2022/05/26 08:51:44;;;;;;;8.83;4.77;;;;;20.00;101468.00;;;;5027234;28;20233;-72
2022/05/26 08:54:37;;;;;;;9.07;5.97;;;;;20.10;101469.00;;;;5021436;28;20246;-71
2022/05/26 08:57:26;;;;;;;11.53;5.27;;;;;20.00;101466.00;;;;5019962;28;20354;-71
2022/05/26 09:00:18;;;;;;;10.10;4.97;;;;;19.90;101461.00;;;;5010988;28;20318;-69
2022/05/26 09:03:20;;;;;;;12.33;5.53;;;;;20.10;101475.00;;;;5016541;28;20260;-70
2022/05/26 09:06:08;;;;;;;6.77;5.73;;;;;19.90;101465.00;;;;5012092;28;20233;-73
2022/05/26 09:15:07;;;;;;;11.10;5.70;;;;;19.20;101500.00;;;;4994704;28;20237;-71
2022/05/26 09:17:53;;;;;;;10.13;6.30;;;;;19.10;101494.00;;;;4981197;28;20896;-73
2022/05/26 09:20:42;;;;;;;11.90;5.83;;;;;19.30;101503.00;;;;5013910;28;20717;-71
2022/05/26 09:23:31;;;;;;;9.37;6.40;;;;;19.50;101494.00;;;;5025119;28;20949;-71
2022/05/26 09:26:19;;;;;;;10.20;6.10;;;;;19.60;101490.00;;;;5006765;28;20373;-72
2022/05/26 09:29:10;;;;;;;8.73;6.13;;;;;19.70;101490.00;;;;5000835;28;20878;-72
2022/05/26 09:31:59;;;;;;;10.43;5.87;;;;;19.70;101497.00;;;;5015926;28;20317;-71
2022/05/26 09:35:13;;;;;;;9.77;5.63;;;;;20.30;101494.00;;;;5021367;28;20225;-72
2022/05/26 09:38:01;;;;;;;10.70;5.67;;;;;20.60;101485.00;;;;5020832;28;20238;-73
2022/05/26 09:40:48;;;;;;;8.20;5.60;;;;;20.90;101480.00;;;;5019137;28;20772;-72
2022/05/26 09:43:34;;;;;;;8.17;5.47;;;;;20.60;101478.00;;;;5026139;28;20790;-73
2022/05/26 09:46:26;;;;;;;10.30;5.47;;;;;20.30;101495.00;;;;5026283;28;20725;-73
2022/05/26 09:49:13;;;;;;;10.77;5.60;;;;;20.10;101497.00;;;;5026689;28;20874;-73
2022/05/26 09:52:13;;;;;;;9.73;5.63;;;;;20.10;101496.00;;;;5020999;28;20225;-74
2022/05/26 09:55:17;;;;;;;12.30;5.97;;;;;20.20;101506.00;;;;5020213;28;20237;-74
2022/05/26 09:58:07;;;;;;;10.53;5.00;;;;;20.30;101502.00;;;;5021376;28;20276;-73
2022/05/26 10:00:53;;;;;;;7.27;4.63;;;;;20.70;101512.00;;;;5022953;28;20602;-73
2022/05/26 10:03:50;;;;;;;5.67;4.80;;;;;20.80;101499.00;;;;5018292;28;20313;-75
2022/05/26 10:06:41;;;;;;;8.57;4.40;;;;;20.50;101499.00;;;;5017991;28;20233;-73
2022/05/26 10:09:35;;;;;;;8.37;4.63;;;;;20.40;101513.00;;;;4997491;28;20223;-73
2022/05/26 10:12:31;;;;;;;14.20;5.13;;;;;20.10;101520.00;;;;4992888;28;20230;-72
2022/05/26 10:15:29;;;;;;;6.30;4.40;;;;;19.80;101517.00;;;;4993123;28;20918;-73
2022/05/26 10:18:34;;;;;;;8.30;3.97;;;;;19.70;101515.00;;;;4994300;28;20231;-72
2022/05/26 10:21:36;;;;;;;8.63;6.03;;;;;19.80;101516.00;;;;5001169;28;20304;-73
2022/05/26 10:24:50;;;;;;;7.00;3.83;;;;;20.20;101513.00;;;;4996527;28;20238;-73
2022/05/26 10:27:48;;;;;;;7.20;4.00;;;;;19.90;101511.00;;;;5015260;28;20241;-73
2022/05/26 10:30:44;;;;;;;6.10;3.97;;;;;19.80;101533.00;;;;4995226;28;20298;-72
2022/05/26 10:33:48;;;;;;;8.13;4.17;;;;;20.00;101519.00;;;;5012813;28;20370;-73
2022/05/26 10:36:46;;;;;;;9.33;4.63;;;;;20.10;101520.00;;;;5009325;28;20233;-72
2022/05/26 10:39:52;;;;;;;10.23;5.10;;;;;20.50;101531.00;;;;5014254;28;20829;-72
2022/05/26 10:42:43;;;;;;;7.43;4.63;;;;;20.20;101532.00;;;;5012532;28;20770;-73
2022/05/26 10:45:37;;;;;;;7.57;4.60;;;;;19.90;101531.00;;;;5013674;28;20357;-73
2022/05/26 10:48:35;;;;;;;8.43;4.60;;;;;19.70;101530.00;;;;5015553;28;20373;-73
2022/05/26 10:51:27;;;;;;;6.67;4.10;;;;;19.50;101538.00;;;;5003157;28;20289;-72
2022/05/26 10:54:20;;;;;;;8.90;4.90;;;;;19.40;101536.00;;;;5012950;28;20322;-72
2022/05/26 10:57:11;;;;;;;9.37;4.30;;;;;19.70;101541.00;;;;5010282;28;20238;-72
2022/05/26 11:00:02;;;;;;;12.00;5.23;;;;;20.10;101530.00;;;;5013098;28;20222;-72
2022/05/26 11:02:56;;;;;;;6.80;4.80;;;;;20.60;101544.00;;;;5006364;28;20602;-72
2022/05/26 11:05:46;;;;;;;9.73;4.73;;;;;20.30;101548.00;;;;5009775;28;20244;-72
2022/05/26 11:08:39;;;;;;;12.00;5.27;;;;;20.00;101557.00;;;;5008043;28;20282;-73
2022/05/26 11:11:35;;;;;;;9.67;4.83;;;;;19.70;101542.00;;;;4996518;28;20262;-71
2022/05/26 11:17:42;;;;;;;7.67;5.00;;;;;19.90;101556.00;;;;5014438;28;20319;-71
2022/05/26 11:20:33;;;;;;;7.23;4.47;;;;;20.10;101552.00;;;;5010680;28;20350;-72
2022/05/26 11:23:20;;;;;;;9.30;4.77;;;;;20.70;101540.00;;;;5010996;28;20277;-72
2022/05/26 11:26:13;;;;;;;8.53;4.70;;;;;21.40;101545.00;;;;5017217;28;20669;-73
2022/05/26 11:29:10;;;;;;;11.17;4.93;;;;;22.00;101533.00;;;;5017687;28;20238;-73
2022/05/26 11:38:35;;;;;;;8.23;4.60;;;;;21.40;101526.00;;;;5021068;28;20239;-72
2022/05/26 11:41:35;;;;;;;10.43;4.43;;;;;20.90;101536.00;;;;5021038;28;20312;-72
2022/05/26 11:44:37;;;;;;;5.93;4.27;;;;;20.50;101528.00;;;;5015210;28;20238;-73
2022/05/26 11:47:33;;;;;;;8.33;4.43;;;;;20.60;101527.00;;;;4998917;28;20274;-73
2022/05/26 11:50:49;;;;;;;9.77;4.27;;;;;20.90;101524.00;;;;5019840;28;20268;-73
2022/05/26 11:53:42;;;;;;;5.60;4.10;;;;;21.50;101527.00;;;;5018324;28;20282;-70
2022/05/26 11:56:44;;;;;;;7.87;3.80;;;;;21.70;101534.00;;;;5028349;28;20613;-74
2022/05/26 11:59:47;;;;;;;6.10;3.50;;;;;21.70;101528.00;;;;5026089;28;20301;-71
2022/05/26 12:02:34;;;;;;;4.97;3.50;;;;;21.50;101519.00;;;;5028236;28;20324;-73
2022/05/26 12:05:48;;;;;;;7.53;3.77;;;;;21.20;101541.00;;;;5027830;28;20242;-70
2022/05/26 12:08:39;;;;;;;5.87;3.57;;;;;20.90;101533.00;;;;5009118;28;20252;-72
2022/05/26 12:11:58;;;;;;;9.53;3.53;;;;;20.90;101533.00;;;;5025590;28;20233;-73
2022/05/26 12:15:04;;;;;;;11.70;7.57;;;;;20.80;101533.00;;;;5028098;28;20244;-73
2022/05/26 12:17:52;;;;;;;8.13;4.40;;;;;21.00;101524.00;;;;5018330;28;20231;-73
2022/05/26 12:20:42;;;;;;;6.37;4.00;;;;;21.70;101496.00;;;;5027261;28;20345;-72
2022/05/26 12:23:30;;;;;;;8.10;4.20;;;;;22.40;101509.00;;;;5027611;28;20251;-71
2022/05/26 12:26:31;;;;;;;6.33;3.80;;;;;23.00;101511.00;;;;5028039;28;20377;-71
2022/05/26 12:29:43;;;;;;;5.10;3.70;;;;;23.30;101504.00;;;;5024027;28;20236;-72
2022/05/26 12:32:34;;;;;;;6.90;3.43;;;;;22.90;101506.00;;;;5025535;28;20761;-71
2022/05/26 12:35:33;;;;;;;6.97;3.30;;;;;22.80;101506.00;;;;5027208;28;20302;-72
2022/05/26 12:38:37;;;;;;;4.80;3.53;;;;;22.90;101511.00;;;;5024124;28;20376;-72
2022/05/26 12:41:34;;;;;;;6.37;3.70;;;;;23.20;101494.00;;;;5014330;28;20368;-74
2022/05/26 12:44:58;;;;;;;6.70;4.40;;;;;23.70;101490.00;;;;5026451;28;20624;-72
2022/05/26 12:48:02;;;;;;;7.37;3.97;;;;;23.80;101495.00;;;;5011152;28;20333;-74
2022/05/26 12:50:48;;;;;;;7.17;4.07;;;;;23.90;101469.00;;;;5002005;28;20226;-73
2022/05/26 12:53:39;;;;;;;7.47;4.00;;;;;23.40;101484.00;;;;5003506;28;20720;-74
2022/05/26 12:56:35;;;;;;;7.60;3.50;;;;;23.80;101477.00;;;;5024971;28;20295;-72
2022/05/26 12:59:23;;;;;;;6.77;3.83;;;;;24.30;101480.00;;;;5026201;28;20237;-73
2022/05/26 13:02:13;;;;;;;8.50;4.17;;;;;24.30;101464.00;;;;5007753;28;20234;-76
2022/05/26 13:05:03;;;;;;;5.30;3.60;;;;;24.60;101475.00;;;;5001440;28;20303;-76
2022/05/26 13:07:53;;;;;;;8.70;4.47;;;;;24.70;101462.00;;;;5008028;28;20254;-76
2022/05/26 13:10:42;;;;;;;6.47;4.10;;;;;24.50;101468.00;;;;5011311;28;20238;-75
2022/05/26 13:13:42;;;;;;;9.57;4.23;;;;;24.00;101481.00;;;;5007322;28;20734;-74
2022/05/26 13:16:32;;;;;;;7.47;4.20;;;;;24.10;101472.00;;;;5005018;28;20230;-74
2022/05/26 13:19:22;;;;;;;5.20;3.30;;;;;23.80;101473.00;;;;5007830;28;20238;-74
2022/05/26 13:22:14;;;;;;;6.77;4.30;;;;;23.30;101470.00;;;;5002549;28;20230;-74
2022/05/26 13:25:05;;;;;;;5.13;4.13;;;;;23.00;101473.00;;;;5007424;28;20234;-74
2022/05/26 13:27:55;;;;;;;6.30;3.93;;;;;23.60;101480.00;;;;5033043;28;20786;-75
2022/05/26 13:33:51;;;;;;;4.30;3.67;;;;;23.40;101478.00;;;;5019584;28;20358;-75
2022/05/26 13:36:40;;;;;;;7.47;4.00;;;;;23.00;101465.00;;;;5027188;28;20319;-73
2022/05/26 13:39:28;;;;;;;7.37;4.30;;;;;22.60;101473.00;;;;5017159;28;20295;-75
2022/05/26 13:42:15;;;;;;;9.80;4.10;;;;;22.70;101475.00;;;;5027738;28;20279;-73
2022/05/26 13:45:04;;;;;;;5.20;3.83;;;;;23.00;101467.00;;;;5019429;28;20603;-77
2022/05/26 13:48:36;;;;;;;6.93;4.00;;;;;23.30;101474.00;;;;5012907;28;20233;-74
2022/05/26 13:51:25;;;;;;;5.60;4.70;;;;;23.00;101473.00;;;;5013020;28;20307;-72
2022/05/26 13:54:25;;;;;;;4.23;3.70;;;;;22.80;101480.00;;;;5019698;28;20742;-72
2022/05/26 13:57:18;;;;;;;8.53;4.53;;;;;22.80;101482.00;;;;4994493;28;20238;-73
2022/05/26 14:00:08;;;;;;;6.43;3.97;;;;;23.10;101473.00;;;;5000121;28;20244;-74
2022/05/26 14:02:57;;;;;;;8.73;4.37;;;;;23.80;101471.00;;;;5008716;28;20245;-73
2022/05/26 14:05:58;;;;;;;7.33;4.77;;;;;23.40;101474.00;;;;4995413;28;20241;-73
2022/05/26 14:08:49;;;;;;;7.17;4.17;;;;;23.20;101459.00;;;;5009014;28;20233;-75
2022/05/26 14:11:41;;;;;;;6.33;3.67;;;;;22.90;101473.00;;;;5016586;28;20237;-73
2022/05/26 14:14:40;;;;;;;4.73;3.70;;;;;23.30;101472.00;;;;5013389;28;20225;-72
2022/05/26 14:17:31;;;;;;;5.17;3.40;;;;;24.30;101471.00;;;;5021138;28;20610;-74
2022/05/26 14:20:24;;;;;;;4.87;3.30;;;;;24.10;101452.00;;;;5021057;28;20237;-74
2022/05/26 14:23:11;;;;;;;7.83;4.03;;;;;24.30;101463.00;;;;5020835;28;20236;-75
2022/05/26 14:25:59;;;;;;;7.13;3.50;;;;;24.20;101461.00;;;;5024440;28;20320;-73
2022/05/26 14:28:46;;;;;;;6.80;3.80;;;;;23.80;101448.00;;;;5025876;28;20232;-74
2022/05/26 14:31:35;;;;;;;4.03;3.10;;;;;23.20;101448.00;;;;5017586;28;20234;-73
2022/05/26 14:34:25;;;;;;;3.50;3.13;;;;;22.80;101452.00;;;;5025544;28;20229;-75
2022/05/26 14:37:12;;;;;;;3.83;3.00;;;;;22.40;101468.00;;;;5021029;28;20300;-74
2022/05/26 14:39:58;;;;;;;6.23;3.67;;;;;22.30;101457.00;;;;5019467;28;20244;-75
2022/05/26 14:42:46;;;;;;;4.27;2.93;;;;;22.90;101458.00;;;;5025752;28;20244;-74
2022/05/26 14:45:33;;;;;;;3.70;2.80;;;;;23.60;101444.00;;;;5025263;28;20287;-74
2022/05/26 14:48:20;;;;;;;6.70;3.23;;;;;23.70;101437.00;;;;5025851;28;20292;-73